This is the latest recevied weather packets stored in our database for station/object CA3DPI. If no packets are shown the sender has not sent any weather packets the latest 10 day(s).
| Time | Temp. | Humidity | Pressure | Rain* | Wind** | Luminosity | Snow |
|---|---|---|---|---|---|---|---|
| 1777746419 | 37.22° C | 24% | 1017.7 hPa | - | - | - | - |
| 1777745818 | 37.22° C | 30% | 1017.8 hPa | - | - | - | - |
| 1777745218 | 36.67° C | 29% | 1017.8 hPa | - | - | - | - |
| 1777744783 | 36.67° C | 34% | 1017.9 hPa | - | - | - | - |
| 1777744618 | 36.67° C | 34% | 1017.9 hPa | - | - | - | - |
| 1777744144 | 36.11° C | 27% | 1017.9 hPa | - | - | - | - |
| 1777743515 | 35° C | 29% | 1018.2 hPa | - | - | - | - |
| 1777743417 | 35° C | 29% | 1018.2 hPa | - | - | - | - |
| 1777742817 | 35° C | 30% | 1018.2 hPa | - | - | - | - |
| 1777742216 | 35.56° C | 36% | 1018.2 hPa | - | - | - | - |
| 1777741616 | 35° C | 31% | 1018.3 hPa | - | - | - | - |
| 1777741016 | 34.44° C | 30% | 1018.4 hPa | - | - | - | - |
| 1777740416 | 33.33° C | 35% | 1018.6 hPa | - | - | - | - |
| 1777739816 | 31.67° C | 32% | 1018.9 hPa | - | - | - | - |
| 1777739216 | 31.67° C | 34% | 1019 hPa | - | - | - | - |
| 1777738615 | 31.11° C | 34% | 1019.1 hPa | - | - | - | - |
| 1777738015 | 29.44° C | 37% | 1019.4 hPa | - | - | - | - |
| 1777737415 | 28.89° C | 38% | 1019.5 hPa | - | - | - | - |
| 1777736815 | 27.78° C | 38% | 1019.6 hPa | - | - | - | - |
| 1777736215 | 27.22° C | 39% | 1019.8 hPa | - | - | - | - |
| 1777735615 | 26.11° C | 41% | 1019.9 hPa | - | - | - | - |
| 1777735014 | 25° C | 42% | 1020 hPa | - | - | - | - |
| 1777734414 | 24.44° C | 42% | 1020.1 hPa | - | - | - | - |
| 1777733814 | 23.89° C | 42% | 1020.1 hPa | - | - | - | - |
| 1777733213 | 22.78° C | 43% | 1020.3 hPa | - | - | - | - |
* Rain since midnight (hover to see other rain measurements)
** Current wind speed in m/s (hover to see current wind gust speed)